Time;durP1;ratioP1;P1;durP2;ratioP2;P2;SDS_P1;SDS_P2;PMS_P1;PMS_P2;Temp;Humidity;BMP_temperature;BMP_pressure;BME280_temperature;BME280_humidity;BME280_pressure;Samples;Min_cycle;Max_cycle;Signal;HPM_P1;HPM_P2
2020/12/03 00:00:53;;;;;;;;;;;;;;;;;;5024054;28;1898;-80
2020/12/03 00:03:27;;;;;;;;;;;;;;;;;;5037809;23;1975;-79
2020/12/03 00:05:58;;;;;;;;;;;;;;;;;;5069655;23;1846;-79
2020/12/03 00:10:52;;;;;;;;;;;;;;;;;;5088377;23;1970;-79
2020/12/03 00:13:22;;;;;;;;;;;;;;;;;;5023755;28;1720;-81
2020/12/03 00:15:54;;;;;;;;;;;;;;;;;;5096209;23;1960;-81
2020/12/03 00:21:07;;;;;;;;;;;;;;;;;;5089256;23;2061;-80
2020/12/03 00:26:38;;;;;;;;;;;;;;;;;;5041819;23;1677;-82
2020/12/03 00:29:15;;;;;;;;;;;;;;;;;;5045055;23;1621;-80
2020/12/03 00:31:43;;;;;;;;;;;;;;;;;;5039297;28;1133;-80
2020/12/03 00:34:10;;;;;;;;;;;;;;;;;;5036192;28;2078;-81
2020/12/03 00:39:16;;;;;;;;;;;;;;;;;;5104209;23;1979;-80
2020/12/03 00:50:25;;;;;;;;;;;;;;;;;;5059081;23;1849;-81
2020/12/03 00:52:58;;;;;;;;;;;;;;;;;;5011356;28;1818;-79
2020/12/03 00:55:34;;;;;;;;;;;;;;;;;;5012290;28;1802;-82
2020/12/03 00:58:08;;;;;;;;;;;;;;;;;;5014611;28;1784;-81
2020/12/03 01:00:50;;;;;;;;;;;;;;;;;;5033302;28;1883;-82
2020/12/03 01:03:17;;;;;;;;;;;;;;;;;;5038720;28;1048;-83
2020/12/03 01:05:54;;;;;;;;;;;;;;;;;;5039456;28;1129;-84
2020/12/03 01:08:38;;;;;;;;;;;;;;;;;;5037994;28;1141;-83
2020/12/03 01:11:14;;;;;;;;;;;;;;;;;;5039077;28;1314;-85
2020/12/03 01:14:08;;;;;;;;;;;;;;;;;;5038615;28;1157;-84
2020/12/03 01:16:35;;;;;;;;;;;;;;;;;;5018204;28;1947;-80
2020/12/03 01:19:06;;;;;;;;;;;;;;;;;;4998023;28;1956;-80
2020/12/03 01:21:34;;;;;;;;;;;;;;;;;;4997654;28;1045;-82
2020/12/03 01:24:03;;;;;;;;;;;;;;;;;;4998142;28;1260;-81
2020/12/03 01:26:36;;;;;;;;;;;;;;;;;;5014419;28;1721;-81
2020/12/03 01:29:10;;;;;;;;;;;;;;;;;;5027403;28;1933;-81
2020/12/03 01:31:40;;;;;;;;;;;;;;;;;;5036864;28;1120;-80
2020/12/03 01:34:08;;;;;;;;;;;;;;;;;;5023702;28;1954;-81
2020/12/03 01:36:36;;;;;;;;;;;;;;;;;;5015849;28;1520;-81
2020/12/03 01:39:07;;;;;;;;;;;;;;;;;;5006370;28;1891;-82
2020/12/03 01:41:43;;;;;;;;;;;;;;;;;;5026148;28;1931;-81
2020/12/03 01:44:12;;;;;;;;;;;;;;;;;;5016461;28;1117;-81
2020/12/03 01:46:41;;;;;;;;;;;;;;;;;;5016596;28;2047;-81
2020/12/03 01:49:27;;;;;;;;;;;;;;;;;;5028569;28;1780;-81
2020/12/03 01:52:02;;;;;;;;;;;;;;;;;;5028422;28;1539;-81
2020/12/03 01:54:34;;;;;;;;;;;;;;;;;;5014582;28;1512;-82
2020/12/03 01:57:24;;;;;;;;;;;;;;;;;;5025266;28;1734;-81
2020/12/03 02:00:04;;;;;;;;;;;;;;;;;;5015198;28;2039;-81
2020/12/03 02:02:33;;;;;;;;;;;;;;;;;;5015201;28;1054;-81
2020/12/03 02:05:09;;;;;;;;;;;;;;;;;;5014600;28;1583;-81
2020/12/03 02:07:55;;;;;;;;;;;;;;;;;;5014547;28;1041;-81
2020/12/03 02:10:24;;;;;;;;;;;;;;;;;;5012259;28;1591;-83
2020/12/03 02:12:53;;;;;;;;;;;;;;;;;;5013225;28;1098;-81
2020/12/03 02:15:22;;;;;;;;;;;;;;;;;;5018523;28;1687;-81
2020/12/03 02:17:54;;;;;;;;;;;;;;;;;;5029109;28;1983;-81
2020/12/03 02:20:22;;;;;;;;;;;;;;;;;;5018955;28;1962;-81
2020/12/03 02:22:58;;;;;;;;;;;;;;;;;;5021066;28;1624;-79
2020/12/03 02:25:27;;;;;;;;;;;;;;;;;;5012787;28;1102;-81
2020/12/03 02:27:56;;;;;;;;;;;;;;;;;;5012847;28;1074;-80
2020/12/03 02:30:24;;;;;;;;;;;;;;;;;;5011144;28;1636;-80
2020/12/03 02:32:59;;;;;;;;;;;;;;;;;;5018197;28;1706;-80
2020/12/03 02:35:35;;;;;;;;;;;;;;;;;;5018523;28;1940;-80
2020/12/03 02:38:09;;;;;;;;;;;;;;;;;;5011368;28;1705;-79
2020/12/03 02:40:37;;;;;;;;;;;;;;;;;;4996135;28;1903;-81
2020/12/03 02:43:09;;;;;;;;;;;;;;;;;;4996246;28;1793;-81
2020/12/03 02:45:45;;;;;;;;;;;;;;;;;;5015540;28;1886;-79
2020/12/03 02:48:12;;;;;;;;;;;;;;;;;;5034657;28;1109;-81
2020/12/03 02:50:41;;;;;;;;;;;;;;;;;;5035112;28;1104;-81
2020/12/03 02:53:13;;;;;;;;;;;;;;;;;;5033579;28;1108;-81
2020/12/03 02:55:40;;;;;;;;;;;;;;;;;;5025045;28;2117;-80
2020/12/03 02:58:07;;;;;;;;;;;;;;;;;;5025936;28;1763;-81
2020/12/03 03:00:37;;;;;;;;;;;;;;;;;;5002769;28;1966;-80
2020/12/03 03:03:05;;;;;;;;;;;;;;;;;;5012245;28;1555;-83
2020/12/03 03:05:33;;;;;;;;;;;;;;;;;;5012027;28;1897;-78
2020/12/03 03:08:02;;;;;;;;;;;;;;;;;;4992221;28;1828;-81
2020/12/03 03:10:41;;;;;;;;;;;;;;;;;;5002659;28;1611;-80
2020/12/03 03:13:09;;;;;;;;;;;;;;;;;;5011178;28;1278;-81
2020/12/03 03:15:38;;;;;;;;;;;;;;;;;;5011910;28;1487;-79
2020/12/03 03:18:05;;;;;;;;;;;;;;;;;;5031490;28;1037;-79
2020/12/03 03:20:32;;;;;;;;;;;;;;;;;;5028825;28;1876;-79
2020/12/03 03:23:00;;;;;;;;;;;;;;;;;;4992491;28;1238;-80
2020/12/03 03:25:27;;;;;;;;;;;;;;;;;;5005636;28;2088;-80
2020/12/03 03:27:56;;;;;;;;;;;;;;;;;;5008021;28;1984;-79
2020/12/03 03:30:23;;;;;;;;;;;;;;;;;;5006164;28;1654;-81
2020/12/03 03:32:54;;;;;;;;;;;;;;;;;;5000828;28;1583;-79
2020/12/03 03:35:22;;;;;;;;;;;;;;;;;;4991553;28;2019;-80
2020/12/03 03:37:51;;;;;;;;;;;;;;;;;;5005179;28;1800;-79
2020/12/03 03:40:17;;;;;;;;;;;;;;;;;;5004117;28;1981;-80
2020/12/03 03:42:44;;;;;;;;;;;;;;;;;;5004088;28;1848;-78
2020/12/03 03:45:15;;;;;;;;;;;;;;;;;;5012409;28;1110;-81
2020/12/03 03:47:43;;;;;;;;;;;;;;;;;;5017383;28;1733;-82
2020/12/03 03:50:11;;;;;;;;;;;;;;;;;;5033002;28;1812;-82
2020/12/03 03:52:52;;;;;;;;;;;;;;;;;;5024081;28;1634;-82
2020/12/03 03:55:20;;;;;;;;;;;;;;;;;;5021551;28;1144;-82
2020/12/03 03:57:48;;;;;;;;;;;;;;;;;;5021343;28;1757;-83
2020/12/03 04:00:34;;;;;;;;;;;;;;;;;;5020986;28;2075;-84
2020/12/03 04:03:28;;;;;;;;;;;;;;;;;;5020705;28;1948;-80
2020/12/03 04:05:57;;;;;;;;;;;;;;;;;;5021585;28;1058;-81
2020/12/03 04:08:25;;;;;;;;;;;;;;;;;;5015654;28;1948;-81
2020/12/03 04:10:53;;;;;;;;;;;;;;;;;;5001181;28;1525;-81
2020/12/03 04:13:36;;;;;;;;;;;;;;;;;;5000495;28;1089;-82
2020/12/03 04:16:09;;;;;;;;;;;;;;;;;;5001347;28;1041;-81
2020/12/03 04:18:36;;;;;;;;;;;;;;;;;;5016246;28;1921;-81
2020/12/03 04:21:05;;;;;;;;;;;;;;;;;;5020483;28;1954;-83
2020/12/03 04:26:32;;;;;;;;;;;;;;;;;;5021041;28;1335;-82
2020/12/03 04:29:00;;;;;;;;;;;;;;;;;;5021290;28;1042;-81
2020/12/03 04:34:34;;;;;;;;;;;;;;;;;;5021327;28;831;-80
2020/12/03 04:37:07;;;;;;;;;;;;;;;;;;5021971;28;1105;-84
2020/12/03 04:39:57;;;;;;;;;;;;;;;;;;5008368;28;1887;-80
2020/12/03 04:42:27;;;;;;;;;;;;;;;;;;5001370;28;1085;-81
2020/12/03 04:48:03;;;;;;;;;;;;;;;;;;5024880;28;1706;-83
2020/12/03 04:50:37;;;;;;;;;;;;;;;;;;5040298;28;985;-82
2020/12/03 04:53:28;;;;;;;;;;;;;;;;;;5035840;28;1734;-81
2020/12/03 04:56:14;;;;;;;;;;;;;;;;;;5092379;23;1977;-83
2020/12/03 04:59:07;;;;;;;;;;;;;;;;;;5081257;23;1893;-84
2020/12/03 05:01:57;;;;;;;;;;;;;;;;;;5020920;28;1804;-83
2020/12/03 05:04:38;;;;;;;;;;;;;;;;;;5021559;28;1697;-83
2020/12/03 05:07:23;;;;;;;;;;;;;;;;;;5020389;28;1096;-82
2020/12/03 05:09:55;;;;;;;;;;;;;;;;;;5020375;28;1117;-83
2020/12/03 05:12:53;;;;;;;;;;;;;;;;;;5020710;28;1080;-81
2020/12/03 05:15:31;;;;;;;;;;;;;;;;;;5020193;28;1982;-81
2020/12/03 05:18:22;;;;;;;;;;;;;;;;;;5032247;28;1911;-81
2020/12/03 05:20:50;;;;;;;;;;;;;;;;;;5033722;28;1956;-79
2020/12/03 05:23:43;;;;;;;;;;;;;;;;;;5037630;28;1430;-81
2020/12/03 05:50:28;;;;;;;;;;;;;;;;;;5020239;28;820;-81
2020/12/03 06:07:17;;;;;;;;;;;;;;;;;;5544842;22;1852;-83
2020/12/03 06:44:58;;;;;;;;;;;;;;;;;;5025197;23;1465;-81
2020/12/03 06:53:39;;;;;;;;;;;;;;;;;;6066868;23;1942;-80
2020/12/03 06:56:25;;;;;;;;;;;;;;;;;;5026841;23;1817;-78
2020/12/03 07:45:23;;;;;;;;;;;;;;;;;;5108212;23;1889;-83
2020/12/03 08:03:58;;;;;;;;;;;;;;;;;;4866240;26;2827;-81
2020/12/03 08:07:20;;;;;;;;;;;;;;;;;;5029908;28;1358;-83
2020/12/03 08:10:08;;;;;;;;;;;;;;;;;;5052309;22;1833;-84
2020/12/03 08:13:06;;;;;;;;;;;;;;;;;;5011386;28;1145;-82
2020/12/03 08:15:36;;;;;;;;;;;;;;;;;;5004465;28;1535;-79
2020/12/03 08:18:02;;;;;;;;;;;;;;;;;;4979507;28;1145;-78
2020/12/03 08:20:44;;;;;;;;;;;;;;;;;;4993989;28;1910;-80
2020/12/03 08:23:13;;;;;;;;;;;;;;;;;;4979628;28;1270;-77
2020/12/03 08:25:45;;;;;;;;;;;;;;;;;;4994708;28;1137;-80
2020/12/03 08:28:17;;;;;;;;;;;;;;;;;;4994528;28;1316;-79
2020/12/03 08:30:50;;;;;;;;;;;;;;;;;;4995101;28;1034;-80
2020/12/03 08:33:24;;;;;;;;;;;;;;;;;;4994054;28;1094;-80
2020/12/03 08:35:53;;;;;;;;;;;;;;;;;;4995643;28;1101;-79
2020/12/03 08:38:22;;;;;;;;;;;;;;;;;;4996087;28;1098;-80
2020/12/03 08:40:51;;;;;;;;;;;;;;;;;;4995330;28;1993;-80
2020/12/03 08:43:18;;;;;;;;;;;;;;;;;;4992434;28;1445;-79
2020/12/03 08:46:01;;;;;;;;;;;;;;;;;;4993045;28;1518;-77
2020/12/03 08:48:32;;;;;;;;;;;;;;;;;;4976963;28;1483;-79
2020/12/03 08:51:02;;;;;;;;;;;;;;;;;;4996655;28;1335;-82
2020/12/03 08:53:31;;;;;;;;;;;;;;;;;;5005036;28;1145;-80
2020/12/03 08:56:07;;;;;;;;;;;;;;;;;;5009202;28;1065;-82
2020/12/03 08:58:55;;;;;;;;;;;;;;;;;;5013503;28;1141;-81
2020/12/03 09:01:25;;;;;;;;;;;;;;;;;;5107157;23;1946;-81
2020/12/03 09:03:54;;;;;;;;;;;;;;;;;;4985272;28;1085;-80
2020/12/03 09:06:21;;;;;;;;;;;;;;;;;;4987965;28;1180;-78
2020/12/03 09:08:54;;;;;;;;;;;;;;;;;;4974783;28;1138;-79
2020/12/03 09:11:21;;;;;;;;;;;;;;;;;;4968741;28;1082;-78
2020/12/03 09:13:49;;;;;;;;;;;;;;;;;;4955405;28;1375;-77
2020/12/03 09:16:18;;;;;;;;;;;;;;;;;;4968725;28;1602;-77
2020/12/03 09:18:45;;;;;;;;;;;;;;;;;;4971528;28;1238;-77
2020/12/03 09:21:12;;;;;;;;;;;;;;;;;;4963829;28;2001;-77
2020/12/03 09:23:40;;;;;;;;;;;;;;;;;;4963957;28;1863;-79
2020/12/03 09:26:22;;;;;;;;;;;;;;;;;;4969887;28;1196;-76
2020/12/03 09:29:12;;;;;;;;;;;;;;;;;;4966968;28;1586;-76
2020/12/03 09:31:42;;;;;;;;;;;;;;;;;;4971522;28;1526;-78
2020/12/03 09:34:09;;;;;;;;;;;;;;;;;;4972230;28;1589;-78
2020/12/03 09:36:38;;;;;;;;;;;;;;;;;;4972814;28;1347;-78
2020/12/03 09:39:13;;;;;;;;;;;;;;;;;;4969039;28;1551;-78
2020/12/03 09:41:42;;;;;;;;;;;;;;;;;;4970917;28;1918;-78
2020/12/03 09:44:14;;;;;;;;;;;;;;;;;;4972218;28;1100;-78
2020/12/03 09:46:46;;;;;;;;;;;;;;;;;;4970829;28;1641;-77
2020/12/03 09:49:15;;;;;;;;;;;;;;;;;;4970856;28;1320;-78
2020/12/03 09:51:43;;;;;;;;;;;;;;;;;;4952960;28;1765;-77
2020/12/03 09:54:12;;;;;;;;;;;;;;;;;;4963129;28;1598;-77
2020/12/03 09:56:41;;;;;;;;;;;;;;;;;;4973247;28;1161;-78
2020/12/03 09:59:08;;;;;;;;;;;;;;;;;;4970574;28;1141;-78
2020/12/03 10:01:56;;;;;;;;;;;;;;;;;;4971627;28;1985;-79
2020/12/03 10:04:44;;;;;;;;;;;;;;;;;;4937995;28;1765;-77
2020/12/03 10:07:29;;;;;;;;;;;;;;;;;;4968993;28;1653;-79
2020/12/03 10:10:09;;;;;;;;;;;;;;;;;;4957633;28;1431;-79
2020/12/03 10:12:51;;;;;;;;;;;;;;;;;;4966646;28;2282;-78
2020/12/03 10:15:22;;;;;;;;;;;;;;;;;;4963287;28;1547;-79
2020/12/03 10:18:07;;;;;;;;;;;;;;;;;;4972586;28;1767;-78
2020/12/03 10:20:37;;;;;;;;;;;;;;;;;;4972545;28;1907;-79
2020/12/03 10:23:36;;;;;;;;;;;;;;;;;;4976335;28;2087;-78
2020/12/03 10:26:18;;;;;;;;;;;;;;;;;;4976032;28;1420;-79
2020/12/03 10:28:50;;;;;;;;;;;;;;;;;;4972656;28;1460;-79
2020/12/03 10:31:18;;;;;;;;;;;;;;;;;;4984492;28;1140;-79
2020/12/03 10:33:52;;;;;;;;;;;;;;;;;;4979285;28;2018;-79
2020/12/03 10:36:32;;;;;;;;;;;;;;;;;;4981950;28;1404;-77
2020/12/03 10:39:03;;;;;;;;;;;;;;;;;;4975700;28;1093;-77
2020/12/03 10:41:33;;;;;;;;;;;;;;;;;;4976785;28;1910;-78
2020/12/03 10:44:04;;;;;;;;;;;;;;;;;;4953787;28;1776;-79
2020/12/03 10:46:33;;;;;;;;;;;;;;;;;;4964363;28;1551;-79
2020/12/03 10:49:02;;;;;;;;;;;;;;;;;;4977385;28;1655;-80
2020/12/03 10:54:04;;;;;;;;;;;;;;;;;;5005821;28;1539;-79
2020/12/03 10:56:44;;;;;;;;;;;;;;;;;;5007060;28;1154;-80
2020/12/03 10:59:32;;;;;;;;;;;;;;;;;;5007069;28;1067;-80
2020/12/03 11:02:20;;;;;;;;;;;;;;;;;;4995901;28;2032;-80
2020/12/03 11:04:47;;;;;;;;;;;;;;;;;;5000665;28;1657;-80
2020/12/03 11:07:16;;;;;;;;;;;;;;;;;;4992013;28;1304;-80
2020/12/03 11:09:51;;;;;;;;;;;;;;;;;;4996558;28;1159;-79
2020/12/03 11:12:20;;;;;;;;;;;;;;;;;;5008116;28;1585;-81
2020/12/03 11:19:57;;;;;;;;;;;;;;;;;;5069712;23;2028;-79
2020/12/03 11:22:35;;;;;;;;;;;;;;;;;;4999442;28;1730;-79
2020/12/03 11:31:02;;;;;;;;;;;;;;;;;;5160670;23;1912;-82
2020/12/03 12:06:44;;;;;;;;;;;;;;;;;;5348043;23;1832;-80
2020/12/03 12:12:40;;;;;;;;;;;;;;;;;;5035673;23;2063;-78
2020/12/03 12:21:37;;;;;;;;;;;;;;;;;;5059329;28;1887;-78
2020/12/03 12:36:24;;;;;;;;;;;;;;;;;;5034067;28;1638;-79
2020/12/03 12:38:52;;;;;;;;;;;;;;;;;;5022613;28;1560;-80
2020/12/03 12:41:20;;;;;;;;;;;;;;;;;;5004450;28;1914;-79
2020/12/03 12:43:47;;;;;;;;;;;;;;;;;;5002749;28;1141;-79
2020/12/03 12:46:19;;;;;;;;;;;;;;;;;;5013566;28;1322;-79
2020/12/03 12:52:10;;;;;;;;;;;;;;;;;;5299272;23;1955;-81
2020/12/03 12:54:39;;;;;;;;;;;;;;;;;;5009656;28;1640;-79
2020/12/03 12:57:14;;;;;;;;;;;;;;;;;;5008566;28;1455;-77
2020/12/03 13:02:18;;;;;;;;;;;;;;;;;;5605658;23;1810;-79
2020/12/03 13:04:45;;;;;;;;;;;;;;;;;;5013725;28;1849;-79
2020/12/03 13:07:16;;;;;;;;;;;;;;;;;;5035336;28;1160;-81
2020/12/03 13:09:50;;;;;;;;;;;;;;;;;;5013425;28;1186;-81
2020/12/03 15:36:05;;;;;;;;;;;;;;;;;;5069944;27;8812;-93
2020/12/03 15:39:39;;;;;;;;;;;;;;;;;;5091559;27;5727;-96
2020/12/03 15:42:10;;;;;;;;;;;;;;;;;;5092130;28;7830;-96
2020/12/03 15:44:37;;;;;;;;;;;;;;;;;;5092612;28;4071;-96
2020/12/03 15:47:04;;;;;;;;;;;;;;;;;;5086807;28;7640;-95
2020/12/03 15:49:30;;;;;;;;;;;;;;;;;;5087934;28;7530;-96
2020/12/03 15:51:57;;;;;;;;;;;;;;;;;;5086490;28;7800;-96
2020/12/03 15:54:23;;;;;;;;;;;;;;;;;;5088656;28;8363;-94
2020/12/03 15:56:51;;;;;;;;;;;;;;;;;;5084022;28;8338;-96
2020/12/03 15:59:17;;;;;;;;;;;;;;;;;;5089708;28;7465;-95
2020/12/03 16:01:44;;;;;;;;;;;;;;;;;;5086795;28;9025;-94
2020/12/03 16:04:10;;;;;;;;;;;;;;;;;;5093638;28;7367;-95
2020/12/03 16:06:36;;;;;;;;;;;;;;;;;;5086650;28;7917;-96
2020/12/03 16:09:03;;;;;;;;;;;;;;;;;;5087357;28;7659;-95
2020/12/03 16:11:29;;;;;;;;;;;;;;;;;;5082543;28;4126;-96
2020/12/03 16:13:56;;;;;;;;;;;;;;;;;;5081611;28;7172;-94
2020/12/03 16:16:22;;;;;;;;;;;;;;;;;;5093901;28;10409;-93
2020/12/03 16:18:48;;;;;;;;;;;;;;;;;;5086148;28;7927;-95
2020/12/03 16:21:14;;;;;;;;;;;;;;;;;;5085705;28;8059;-96
2020/12/03 16:23:40;;;;;;;;;;;;;;;;;;5082291;28;3804;-95
2020/12/03 16:26:07;;;;;;;;;;;;;;;;;;5086560;28;7583;-95
2020/12/03 16:28:33;;;;;;;;;;;;;;;;;;5083557;28;7212;-94
2020/12/03 16:31:00;;;;;;;;;;;;;;;;;;5086476;28;6991;-94
2020/12/03 16:33:26;;;;;;;;;;;;;;;;;;5084279;28;8362;-95
2020/12/03 16:35:53;;;;;;;;;;;;;;;;;;5087640;28;7776;-95
2020/12/03 16:38:19;;;;;;;;;;;;;;;;;;5084854;28;6944;-95
2020/12/03 16:40:48;;;;;;;;;;;;;;;;;;5081661;28;7224;-95
2020/12/03 16:43:14;;;;;;;;;;;;;;;;;;5079634;28;7949;-96
2020/12/03 16:45:40;;;;;;;;;;;;;;;;;;5069462;28;8017;-96
2020/12/03 16:48:08;;;;;;;;;;;;;;;;;;5083192;28;6985;-96
2020/12/03 16:50:34;;;;;;;;;;;;;;;;;;5076385;28;4178;-95
2020/12/03 16:53:00;;;;;;;;;;;;;;;;;;5067232;28;8100;-96
2020/12/03 16:55:26;;;;;;;;;;;;;;;;;;5071669;28;7111;-95
2020/12/03 16:57:53;;;;;;;;;;;;;;;;;;5070113;28;7710;-95
2020/12/03 17:00:19;;;;;;;;;;;;;;;;;;5069994;28;8251;-95
2020/12/03 17:02:45;;;;;;;;;;;;;;;;;;5067523;28;4307;-95
2020/12/03 17:05:12;;;;;;;;;;;;;;;;;;5071141;28;7509;-95
2020/12/03 17:07:39;;;;;;;;;;;;;;;;;;5068800;28;7845;-94
2020/12/03 17:10:05;;;;;;;;;;;;;;;;;;5070511;28;7763;-96
2020/12/03 17:12:31;;;;;;;;;;;;;;;;;;5069085;28;7130;-94
2020/12/03 17:14:57;;;;;;;;;;;;;;;;;;5070609;28;8045;-93
2020/12/03 17:17:23;;;;;;;;;;;;;;;;;;5076105;28;3941;-95
2020/12/03 17:19:50;;;;;;;;;;;;;;;;;;5071742;28;7461;-96
2020/12/03 17:22:17;;;;;;;;;;;;;;;;;;5074233;28;8129;-95
2020/12/03 17:24:43;;;;;;;;;;;;;;;;;;5071034;28;6897;-96
2020/12/03 17:27:10;;;;;;;;;;;;;;;;;;5070338;28;7326;-95
2020/12/03 17:29:36;;;;;;;;;;;;;;;;;;5072486;28;4055;-95
2020/12/03 17:32:02;;;;;;;;;;;;;;;;;;5070287;28;7547;-95
2020/12/03 17:34:28;;;;;;;;;;;;;;;;;;5064697;28;7127;-95
2020/12/03 17:36:54;;;;;;;;;;;;;;;;;;5068779;28;7423;-94
2020/12/03 17:39:22;;;;;;;;;;;;;;;;;;5069003;28;8094;-95
2020/12/03 17:41:48;;;;;;;;;;;;;;;;;;5069032;28;3928;-95
2020/12/03 17:44:14;;;;;;;;;;;;;;;;;;5065282;28;8087;-96
2020/12/03 17:46:40;;;;;;;;;;;;;;;;;;5067931;28;8121;-94
2020/12/03 17:49:06;;;;;;;;;;;;;;;;;;5069458;28;7106;-96
2020/12/03 17:51:32;;;;;;;;;;;;;;;;;;5067839;28;7305;-94
2020/12/03 17:53:59;;;;;;;;;;;;;;;;;;5070408;28;5538;-95
2020/12/03 17:56:26;;;;;;;;;;;;;;;;;;5066535;28;5528;-95
2020/12/03 17:58:53;;;;;;;;;;;;;;;;;;5071645;28;7285;-96
2020/12/03 18:01:19;;;;;;;;;;;;;;;;;;5073214;28;7927;-96
2020/12/03 18:03:46;;;;;;;;;;;;;;;;;;5082901;28;8930;-95
2020/12/03 18:06:13;;;;;;;;;;;;;;;;;;5065325;28;6931;-95
2020/12/03 18:08:39;;;;;;;;;;;;;;;;;;5074669;28;4242;-95
2020/12/03 18:11:06;;;;;;;;;;;;;;;;;;5075500;28;7533;-96
2020/12/03 18:13:34;;;;;;;;;;;;;;;;;;5074773;28;7390;-96
2020/12/03 18:16:00;;;;;;;;;;;;;;;;;;5067848;28;7350;-96
2020/12/03 18:18:26;;;;;;;;;;;;;;;;;;5069888;28;9148;-94
2020/12/03 18:20:52;;;;;;;;;;;;;;;;;;5069290;28;7649;-94
2020/12/03 18:23:18;;;;;;;;;;;;;;;;;;5071151;28;3832;-93
2020/12/03 18:25:44;;;;;;;;;;;;;;;;;;5069438;28;7086;-95
2020/12/03 18:28:10;;;;;;;;;;;;;;;;;;5068415;28;8184;-93
2020/12/03 18:30:38;;;;;;;;;;;;;;;;;;5072734;28;6969;-95
2020/12/03 18:33:04;;;;;;;;;;;;;;;;;;5066706;28;7887;-95
2020/12/03 18:35:30;;;;;;;;;;;;;;;;;;5069562;28;4100;-95
2020/12/03 18:37:56;;;;;;;;;;;;;;;;;;5075304;28;8168;-95
2020/12/03 18:40:26;;;;;;;;;;;;;;;;;;5074859;28;7728;-96
2020/12/03 18:42:53;;;;;;;;;;;;;;;;;;5069570;28;7326;-95
2020/12/03 18:45:19;;;;;;;;;;;;;;;;;;5075857;28;3912;-95
2020/12/03 18:47:46;;;;;;;;;;;;;;;;;;5071952;28;1538;-95
2020/12/03 18:50:16;;;;;;;;;;;;;;;;;;5073048;28;7366;-96
2020/12/03 18:52:43;;;;;;;;;;;;;;;;;;5072320;28;7734;-96
2020/12/03 18:55:09;;;;;;;;;;;;;;;;;;5074153;28;7736;-96
2020/12/03 18:57:37;;;;;;;;;;;;;;;;;;5070045;28;8253;-95
2020/12/03 19:00:03;;;;;;;;;;;;;;;;;;5066601;28;7750;-94
2020/12/03 19:02:29;;;;;;;;;;;;;;;;;;5072098;28;7890;-93
2020/12/03 19:04:56;;;;;;;;;;;;;;;;;;5067853;28;9128;-95
2020/12/03 19:07:24;;;;;;;;;;;;;;;;;;5069741;28;7872;-94
2020/12/03 19:09:50;;;;;;;;;;;;;;;;;;5072525;28;7480;-94
2020/12/03 19:12:16;;;;;;;;;;;;;;;;;;5069617;28;8016;-94
2020/12/03 19:14:43;;;;;;;;;;;;;;;;;;5075507;28;4130;-96
2020/12/03 19:17:11;;;;;;;;;;;;;;;;;;5072989;28;8290;-95
2020/12/03 19:19:37;;;;;;;;;;;;;;;;;;5066681;28;6880;-96
2020/12/03 19:22:04;;;;;;;;;;;;;;;;;;5067257;28;7583;-94
2020/12/03 19:24:31;;;;;;;;;;;;;;;;;;5065440;28;8307;-93
2020/12/03 19:26:57;;;;;;;;;;;;;;;;;;5067179;28;7508;-94
2020/12/03 19:29:23;;;;;;;;;;;;;;;;;;5069301;28;3916;-96
2020/12/03 19:31:51;;;;;;;;;;;;;;;;;;5066573;28;4221;-94
2020/12/03 19:34:17;;;;;;;;;;;;;;;;;;5065995;28;7878;-93
2020/12/03 19:36:43;;;;;;;;;;;;;;;;;;5067965;28;8450;-95
2020/12/03 19:39:10;;;;;;;;;;;;;;;;;;5069358;28;7409;-91
2020/12/03 19:41:36;;;;;;;;;;;;;;;;;;5068756;28;4046;-96
2020/12/03 19:44:02;;;;;;;;;;;;;;;;;;5076545;28;6749;-95
2020/12/03 19:46:29;;;;;;;;;;;;;;;;;;5067222;28;7431;-95
2020/12/03 19:48:55;;;;;;;;;;;;;;;;;;5068177;28;7809;-93
2020/12/03 19:51:21;;;;;;;;;;;;;;;;;;5070221;28;7738;-93
2020/12/03 19:53:47;;;;;;;;;;;;;;;;;;5069322;28;4161;-94
2020/12/03 19:56:14;;;;;;;;;;;;;;;;;;5068103;28;7599;-91
2020/12/03 19:58:40;;;;;;;;;;;;;;;;;;5063886;28;7707;-92
2020/12/03 20:01:06;;;;;;;;;;;;;;;;;;5068234;28;6901;-94
2020/12/03 20:03:33;;;;;;;;;;;;;;;;;;5066237;28;6873;-93
2020/12/03 20:06:00;;;;;;;;;;;;;;;;;;5067948;28;7527;-91
2020/12/03 20:08:27;;;;;;;;;;;;;;;;;;5065825;28;7878;-92
2020/12/03 20:10:54;;;;;;;;;;;;;;;;;;5066430;28;9213;-93
2020/12/03 20:13:21;;;;;;;;;;;;;;;;;;5060974;28;8991;-93
2020/12/03 20:15:47;;;;;;;;;;;;;;;;;;5063972;28;8792;-92
2020/12/03 20:18:13;;;;;;;;;;;;;;;;;;5064353;28;7481;-93
2020/12/03 20:20:40;;;;;;;;;;;;;;;;;;5066760;28;4097;-91
2020/12/03 20:23:07;;;;;;;;;;;;;;;;;;5059186;28;9162;-94
2020/12/03 20:25:34;;;;;;;;;;;;;;;;;;5065613;28;7461;-92
2020/12/03 20:28:00;;;;;;;;;;;;;;;;;;5068468;28;8181;-91
2020/12/03 20:30:28;;;;;;;;;;;;;;;;;;5064618;28;7412;-93
2020/12/03 20:32:54;;;;;;;;;;;;;;;;;;5066446;28;7368;-92
2020/12/03 20:35:20;;;;;;;;;;;;;;;;;;5071425;28;7674;-93
2020/12/03 20:37:47;;;;;;;;;;;;;;;;;;5067625;28;7758;-92
2020/12/03 20:40:13;;;;;;;;;;;;;;;;;;5067334;28;6806;-94
2020/12/03 20:42:39;;;;;;;;;;;;;;;;;;5068716;28;8314;-91
2020/12/03 20:45:05;;;;;;;;;;;;;;;;;;5069457;28;8711;-91
2020/12/03 20:47:32;;;;;;;;;;;;;;;;;;5069234;28;3965;-93
2020/12/03 20:49:58;;;;;;;;;;;;;;;;;;5068634;28;8585;-89
2020/12/03 20:52:24;;;;;;;;;;;;;;;;;;5069467;28;8978;-92
2020/12/03 20:54:50;;;;;;;;;;;;;;;;;;5069000;28;9146;-92
2020/12/03 20:57:17;;;;;;;;;;;;;;;;;;5067552;28;8190;-93
2020/12/03 20:59:43;;;;;;;;;;;;;;;;;;5070061;28;4354;-94
2020/12/03 21:02:09;;;;;;;;;;;;;;;;;;5069016;28;8533;-92
2020/12/03 21:04:36;;;;;;;;;;;;;;;;;;5067470;28;5819;-89
2020/12/03 21:07:02;;;;;;;;;;;;;;;;;;5066834;28;7782;-94
2020/12/03 21:09:28;;;;;;;;;;;;;;;;;;5069357;28;7474;-93
2020/12/03 21:11:54;;;;;;;;;;;;;;;;;;5068270;28;10836;-93
2020/12/03 21:14:20;;;;;;;;;;;;;;;;;;5070849;28;9614;-93
2020/12/03 21:16:46;;;;;;;;;;;;;;;;;;5065057;28;10276;-93
2020/12/03 21:19:12;;;;;;;;;;;;;;;;;;5061109;28;9151;-91
2020/12/03 21:21:39;;;;;;;;;;;;;;;;;;5067495;28;9004;-90
2020/12/03 21:24:05;;;;;;;;;;;;;;;;;;5069349;28;7275;-91
2020/12/03 21:26:31;;;;;;;;;;;;;;;;;;5069864;28;7199;-93
2020/12/03 21:28:57;;;;;;;;;;;;;;;;;;5069617;28;9368;-91
2020/12/03 21:31:23;;;;;;;;;;;;;;;;;;5067709;28;10303;-92
2020/12/03 21:33:50;;;;;;;;;;;;;;;;;;5068497;28;8627;-93
2020/12/03 21:36:18;;;;;;;;;;;;;;;;;;5068567;28;8377;-91
2020/12/03 21:38:45;;;;;;;;;;;;;;;;;;5067348;28;4113;-94
2020/12/03 21:41:15;;;;;;;;;;;;;;;;;;5065489;28;6896;-90
2020/12/03 21:43:41;;;;;;;;;;;;;;;;;;5069065;28;7192;-92
2020/12/03 21:46:07;;;;;;;;;;;;;;;;;;5065578;28;9209;-93
2020/12/03 21:48:33;;;;;;;;;;;;;;;;;;5067718;28;8530;-94
2020/12/03 21:50:59;;;;;;;;;;;;;;;;;;5066876;28;10486;-91
2020/12/03 21:53:25;;;;;;;;;;;;;;;;;;5066473;28;11004;-91
2020/12/03 21:55:52;;;;;;;;;;;;;;;;;;5071571;28;7657;-92
2020/12/03 21:58:18;;;;;;;;;;;;;;;;;;5067410;28;8697;-91
2020/12/03 22:00:44;;;;;;;;;;;;;;;;;;5070047;28;7911;-91
2020/12/03 22:03:10;;;;;;;;;;;;;;;;;;5072653;28;9089;-91
2020/12/03 22:05:36;;;;;;;;;;;;;;;;;;5069495;28;3951;-92
2020/12/03 22:08:02;;;;;;;;;;;;;;;;;;5063639;28;10617;-92
2020/12/03 22:10:28;;;;;;;;;;;;;;;;;;5066767;28;7673;-91
2020/12/03 22:12:55;;;;;;;;;;;;;;;;;;5070447;28;9034;-91
2020/12/03 22:15:21;;;;;;;;;;;;;;;;;;5063516;28;8077;-92
2020/12/03 22:17:47;;;;;;;;;;;;;;;;;;5064281;28;4149;-92
2020/12/03 22:20:13;;;;;;;;;;;;;;;;;;5073160;28;8513;-92
2020/12/03 22:22:39;;;;;;;;;;;;;;;;;;5067909;28;7453;-92
2020/12/03 22:25:05;;;;;;;;;;;;;;;;;;5061753;28;7306;-93
2020/12/03 22:27:32;;;;;;;;;;;;;;;;;;5066130;28;6701;-92
2020/12/03 22:29:59;;;;;;;;;;;;;;;;;;5067733;28;8105;-90
2020/12/03 22:32:25;;;;;;;;;;;;;;;;;;5062991;28;3941;-93
2020/12/03 22:34:51;;;;;;;;;;;;;;;;;;5066783;28;9061;-93
2020/12/03 22:37:17;;;;;;;;;;;;;;;;;;5066840;28;6999;-93
2020/12/03 22:39:43;;;;;;;;;;;;;;;;;;5067906;28;7570;-92
2020/12/03 22:42:09;;;;;;;;;;;;;;;;;;5070437;28;9286;-94
2020/12/03 22:44:35;;;;;;;;;;;;;;;;;;5071113;28;4061;-93
2020/12/03 22:47:02;;;;;;;;;;;;;;;;;;5062025;28;9049;-91
2020/12/03 22:49:28;;;;;;;;;;;;;;;;;;5062524;28;7325;-91
2020/12/03 22:51:54;;;;;;;;;;;;;;;;;;5068510;28;8153;-92
2020/12/03 22:54:20;;;;;;;;;;;;;;;;;;5076410;28;7799;-93
2020/12/03 22:56:46;;;;;;;;;;;;;;;;;;5067446;28;4134;-92
2020/12/03 22:59:12;;;;;;;;;;;;;;;;;;5063596;28;8971;-93
2020/12/03 23:01:40;;;;;;;;;;;;;;;;;;5067534;28;8861;-90
2020/12/03 23:04:07;;;;;;;;;;;;;;;;;;5067772;28;8290;-90
2020/12/03 23:06:33;;;;;;;;;;;;;;;;;;5067405;28;9116;-93
2020/12/03 23:08:59;;;;;;;;;;;;;;;;;;5072044;28;9061;-92
2020/12/03 23:11:25;;;;;;;;;;;;;;;;;;5069474;28;9201;-93
2020/12/03 23:13:52;;;;;;;;;;;;;;;;;;5062479;28;7443;-92
2020/12/03 23:16:18;;;;;;;;;;;;;;;;;;5066898;28;9169;-90
2020/12/03 23:18:45;;;;;;;;;;;;;;;;;;5069337;28;7717;-92
2020/12/03 23:21:12;;;;;;;;;;;;;;;;;;5066372;28;10538;-92
2020/12/03 23:23:38;;;;;;;;;;;;;;;;;;5068551;28;3572;-89
2020/12/03 23:26:05;;;;;;;;;;;;;;;;;;5074258;28;10431;-92
2020/12/03 23:28:31;;;;;;;;;;;;;;;;;;5070500;28;8769;-93
2020/12/03 23:30:57;;;;;;;;;;;;;;;;;;5070141;28;10400;-92
2020/12/03 23:33:24;;;;;;;;;;;;;;;;;;5068961;28;8721;-92
2020/12/03 23:35:49;;;;;;;;;;;;;;;;;;5068915;28;3801;-92
2020/12/03 23:38:17;;;;;;;;;;;;;;;;;;5059226;28;9267;-89
2020/12/03 23:40:43;;;;;;;;;;;;;;;;;;5063898;28;7804;-92
2020/12/03 23:43:09;;;;;;;;;;;;;;;;;;5067875;28;8691;-93
2020/12/03 23:45:35;;;;;;;;;;;;;;;;;;5069251;28;7908;-92
2020/12/03 23:48:01;;;;;;;;;;;;;;;;;;5068652;28;7147;-91
2020/12/03 23:50:27;;;;;;;;;;;;;;;;;;5069233;28;7209;-92
2020/12/03 23:52:53;;;;;;;;;;;;;;;;;;5064314;28;10424;-91